createdAt,value
2023-02-14T00:01:20.815Z,0.70
2023-02-14T00:03:49.601Z,0.10
2023-02-14T00:06:17.495Z,0.21
2023-02-14T00:08:45.352Z,0.65
2023-02-14T00:11:14.226Z,0.29
2023-02-14T00:14:02.230Z,0.18
2023-02-14T00:16:29.634Z,0.69
2023-02-14T00:19:03.656Z,-0.11
2023-02-14T00:21:36.351Z,0.70
2023-02-14T00:24:06.122Z,0.62
2023-02-14T00:26:33.670Z,0.64
2023-02-14T00:29:01.885Z,0.65
2023-02-14T00:31:29.700Z,0.67
2023-02-14T00:33:57.258Z,0.67
2023-02-14T00:36:24.833Z,0.69
2023-02-14T00:38:52.562Z,0.72
2023-02-14T00:41:20.159Z,0.71
2023-02-14T00:43:48.811Z,0.75
2023-02-14T00:46:19.151Z,0.72
2023-02-14T00:48:47.252Z,0.65
2023-02-14T00:51:15.184Z,0.12
2023-02-14T00:53:44.822Z,0.71
2023-02-14T00:56:13.085Z,0.75
2023-02-14T00:58:40.918Z,0.70
2023-02-14T01:01:13.481Z,0.71
2023-02-14T01:03:41.399Z,0.68
2023-02-14T01:06:09.134Z,0.62
2023-02-14T01:08:36.904Z,0.55
2023-02-14T01:11:16.780Z,0.51
2023-02-14T01:13:47.696Z,0.55
2023-02-14T01:16:20.508Z,0.59
2023-02-14T01:18:48.888Z,0.64
2023-02-14T01:21:28.032Z,0.62
2023-02-14T01:23:59.186Z,0.66
2023-02-14T01:26:27.540Z,0.61
2023-02-14T01:28:55.550Z,0.59
2023-02-14T01:31:28.817Z,0.56
2023-02-14T01:33:58.729Z,0.44
2023-02-14T01:36:30.295Z,0.35
2023-02-14T01:39:01.003Z,0.30
2023-02-14T01:41:30.938Z,0.33
2023-02-14T01:44:03.618Z,0.30
2023-02-14T01:46:36.923Z,0.30
2023-02-14T01:49:19.047Z,0.30
2023-02-14T01:51:53.139Z,0.33
2023-02-14T01:54:24.844Z,0.35
2023-02-14T01:56:57.930Z,0.39
2023-02-14T01:59:30.570Z,0.39
2023-02-14T02:01:58.660Z,0.36
2023-02-14T02:04:32.873Z,0.35
2023-02-14T02:07:05.172Z,0.26
2023-02-14T02:09:46.798Z,0.33
2023-02-14T02:12:14.258Z,0.17
2023-02-14T02:14:44.350Z,-0.17
2023-02-14T02:17:38.077Z,0.14
2023-02-14T02:20:20.792Z,0.08
2023-02-14T02:22:57.443Z,0.04
2023-02-14T02:25:55.805Z,0.05
2023-02-14T02:28:50.547Z,0.09
2023-02-14T02:31:58.453Z,0.07
2023-02-14T02:34:50.441Z,0.10
2023-02-14T02:37:39.733Z,0.07
2023-02-14T02:40:29.820Z,0.07
2023-02-14T02:43:12.557Z,0.12
2023-02-14T02:46:21.331Z,0.16
2023-02-14T02:49:40.092Z,0.11
2023-02-14T02:52:51.506Z,-0.40
2023-02-14T02:56:05.230Z,0.10
2023-02-14T02:58:39.462Z,0.15
2023-02-14T03:01:15.260Z,0.17
2023-02-14T03:04:22.538Z,-0.32
2023-02-14T03:06:51.203Z,0.16
2023-02-14T03:09:24.646Z,0.21
2023-02-14T03:12:37.524Z,0.19
2023-02-14T03:15:35.906Z,0.19
2023-02-14T03:18:45.064Z,0.27
2023-02-14T03:21:40.805Z,0.26
2023-02-14T03:24:17.455Z,0.32
2023-02-14T03:26:50.003Z,0.34
2023-02-14T03:29:47.782Z,0.24
2023-02-14T03:32:50.261Z,0.29
2023-02-14T03:35:30.949Z,0.34
2023-02-14T03:38:08.723Z,0.26
2023-02-14T03:40:44.977Z,0.37
2023-02-14T03:43:21.392Z,0.34
2023-02-14T03:46:22.402Z,0.38
2023-02-14T03:48:52.816Z,0.44
2023-02-14T03:51:22.579Z,-0.06
2023-02-14T03:53:57.519Z,0.46
2023-02-14T03:56:40.469Z,0.40
2023-02-14T03:59:14.095Z,0.41
2023-02-14T04:02:07.386Z,0.39
2023-02-14T04:04:39.602Z,0.01
2023-02-14T04:07:13.117Z,0.43
2023-02-14T04:09:41.033Z,-0.40
2023-02-14T04:12:08.922Z,-0.58
2023-02-14T04:14:37.288Z,-0.18
2023-02-14T04:17:24.029Z,-0.30
2023-02-14T04:19:51.730Z,-0.33
2023-02-14T04:22:19.451Z,-0.30
2023-02-14T04:24:47.162Z,-0.35
2023-02-14T04:27:15.090Z,-0.26
2023-02-14T04:29:47.004Z,-0.28
2023-02-14T04:32:20.642Z,-0.38
2023-02-14T04:34:48.918Z,-0.38
2023-02-14T04:37:18.264Z,-0.34
2023-02-14T04:39:45.781Z,-0.35
2023-02-14T04:42:14.486Z,-0.28
2023-02-14T04:44:42.621Z,-0.20
2023-02-14T04:47:10.347Z,-0.17
2023-02-14T04:49:37.814Z,-0.04
2023-02-14T04:52:05.554Z,0.02
2023-02-14T04:54:33.429Z,0.08
2023-02-14T04:57:01.955Z,0.14
2023-02-14T04:59:29.276Z,0.17
2023-02-14T05:01:56.679Z,0.21
2023-02-14T05:04:24.925Z,0.11
2023-02-14T05:06:52.615Z,0.25
2023-02-14T05:09:20.287Z,0.22
2023-02-14T05:11:47.977Z,-0.32
2023-02-14T05:14:15.270Z,0.36
2023-02-14T05:16:42.838Z,0.41
2023-02-14T05:19:10.323Z,0.41
2023-02-14T05:21:38.476Z,0.45
2023-02-14T05:24:07.074Z,0.47
2023-02-14T05:26:34.784Z,0.39
2023-02-14T05:29:02.492Z,0.40
2023-02-14T05:31:30.576Z,0.39
2023-02-14T05:34:04.190Z,0.25
2023-02-14T05:36:31.992Z,-0.20
2023-02-14T05:38:59.685Z,-0.64
2023-02-14T05:41:27.668Z,0.40
2023-02-14T05:43:55.577Z,0.44
2023-02-14T05:46:22.972Z,0.41
2023-02-14T05:48:50.494Z,0.39
2023-02-14T05:51:18.302Z,0.16
2023-02-14T05:53:45.625Z,0.55
2023-02-14T05:56:13.087Z,0.64
2023-02-14T05:58:40.606Z,0.77
2023-02-14T06:01:08.088Z,0.80
2023-02-14T06:03:35.807Z,-0.03
2023-02-14T06:06:03.626Z,0.97
2023-02-14T06:08:31.070Z,0.94
2023-02-14T06:10:58.676Z,0.94
2023-02-14T06:13:26.557Z,0.98
2023-02-14T06:15:53.944Z,0.62
2023-02-14T06:18:21.293Z,1.15
2023-02-14T06:20:49.064Z,1.21
2023-02-14T06:23:16.682Z,1.16
2023-02-14T06:25:44.027Z,1.15
2023-02-14T06:28:11.571Z,1.15
2023-02-14T06:30:39.260Z,1.17
2023-02-14T06:33:06.839Z,1.19
2023-02-14T06:35:34.577Z,1.20
2023-02-14T06:38:02.928Z,0.64
2023-02-14T06:40:30.537Z,0.95
2023-02-14T06:42:57.933Z,0.36
2023-02-14T06:45:25.664Z,0.51
2023-02-14T06:47:53.183Z,0.95
2023-02-14T06:50:20.924Z,0.99
2023-02-14T06:52:51.633Z,0.50
2023-02-14T06:55:19.225Z,1.01
2023-02-14T06:57:46.787Z,1.09
2023-02-14T07:00:15.047Z,0.86
2023-02-14T07:02:42.713Z,1.09
2023-02-14T07:05:10.378Z,1.12
2023-02-14T07:07:37.862Z,1.16
2023-02-14T07:10:05.898Z,1.07
2023-02-14T07:12:33.278Z,1.21
2023-02-14T07:15:00.953Z,1.24
2023-02-14T07:17:28.544Z,1.35
2023-02-14T07:19:56.093Z,1.42
2023-02-14T07:22:23.369Z,1.35
2023-02-14T07:24:51.495Z,1.45
2023-02-14T07:27:19.120Z,1.58
2023-02-14T07:29:46.916Z,1.80
2023-02-14T07:32:14.530Z,0.92
2023-02-14T07:34:42.435Z,1.52
2023-02-14T07:37:10.184Z,1.87
2023-02-14T07:39:38.084Z,1.92
2023-02-14T07:42:05.777Z,1.95
2023-02-14T07:44:33.074Z,1.98
2023-02-14T07:47:00.880Z,2.02
2023-02-14T07:49:28.494Z,1.80
2023-02-14T07:51:55.896Z,2.18
2023-02-14T07:54:23.308Z,2.06
2023-02-14T07:56:50.685Z,2.23
2023-02-14T07:59:18.150Z,2.33
2023-02-14T08:01:46.151Z,2.51
2023-02-14T08:04:16.776Z,2.62
2023-02-14T08:06:44.445Z,2.63
2023-02-14T08:09:25.399Z,2.53
2023-02-14T08:12:13.957Z,2.36
2023-02-14T08:14:45.483Z,2.13
2023-02-14T08:17:14.189Z,2.48
2023-02-14T08:19:42.505Z,2.46
2023-02-14T08:22:10.726Z,2.81
2023-02-14T08:24:38.617Z,2.89
2023-02-14T08:27:06.370Z,2.96
2023-02-14T08:29:37.658Z,2.57
2023-02-14T08:32:05.178Z,3.07
2023-02-14T08:34:34.221Z,2.13
2023-02-14T08:37:05.873Z,2.45
2023-02-14T08:39:33.478Z,2.06
2023-02-14T08:42:01.195Z,1.74
2023-02-14T08:44:28.816Z,0.99
2023-02-14T08:46:56.321Z,1.45
2023-02-14T08:49:24.217Z,0.75
2023-02-14T08:51:52.222Z,0.71
2023-02-14T08:54:20.054Z,1.20
2023-02-14T08:57:00.037Z,1.13
2023-02-14T08:59:29.974Z,1.29
2023-02-14T09:02:04.378Z,1.19
2023-02-14T09:04:35.665Z,0.60
2023-02-14T09:07:04.758Z,1.35
2023-02-14T09:09:32.935Z,1.33
2023-02-14T09:12:05.076Z,1.31
2023-02-14T09:14:37.832Z,0.99
2023-02-14T09:17:08.251Z,1.35
2023-02-14T09:19:38.168Z,1.46
2023-02-14T09:22:07.631Z,1.02
2023-02-14T09:24:37.891Z,2.15
2023-02-14T09:27:06.194Z,2.56
2023-02-14T09:29:34.033Z,2.88
2023-02-14T09:32:03.833Z,2.64
2023-02-14T09:34:33.941Z,2.94
2023-02-14T09:37:02.095Z,2.83
2023-02-14T09:39:29.653Z,2.67
2023-02-14T09:42:31.523Z,2.52
2023-02-14T09:45:07.310Z,2.45
2023-02-14T09:47:56.986Z,2.58
2023-02-14T09:50:27.971Z,2.61
2023-02-14T09:53:07.315Z,2.41
2023-02-14T09:55:43.767Z,2.68
2023-02-14T09:58:17.802Z,2.79
2023-02-14T10:01:04.001Z,3.05
2023-02-14T10:03:57.765Z,3.14
2023-02-14T10:06:50.367Z,3.18
2023-02-14T10:09:44.238Z,3.31
2023-02-14T10:12:22.597Z,3.44
2023-02-14T10:14:53.642Z,3.35
2023-02-14T10:17:45.174Z,3.51
2023-02-14T10:20:22.166Z,3.44
2023-02-14T10:23:04.032Z,3.17
2023-02-14T10:25:41.666Z,2.82
2023-02-14T10:28:16.716Z,2.09
2023-02-14T10:31:00.207Z,2.42
2023-02-14T10:33:33.666Z,1.83
2023-02-14T10:36:06.273Z,2.04
2023-02-14T10:39:02.616Z,1.89
2023-02-14T10:41:49.360Z,1.99
2023-02-14T10:44:33.723Z,2.00
2023-02-14T10:47:33.350Z,2.26
2023-02-14T10:50:12.139Z,2.44
2023-02-14T10:53:26.058Z,2.40
2023-02-14T10:56:01.079Z,2.69
2023-02-14T10:58:35.009Z,2.82
2023-02-14T11:01:08.718Z,2.69
2023-02-14T11:03:38.811Z,2.94
2023-02-14T11:06:06.695Z,2.73
2023-02-14T11:08:37.394Z,2.66
2023-02-14T11:11:08.053Z,2.60
2023-02-14T11:13:38.151Z,2.62
2023-02-14T11:16:13.188Z,2.57
2023-02-14T11:18:41.754Z,2.58
2023-02-14T11:21:15.276Z,2.48
2023-02-14T11:23:50.211Z,2.35
2023-02-14T11:26:33.210Z,1.63
2023-02-14T11:29:04.436Z,1.49
2023-02-14T11:31:38.375Z,1.86
2023-02-14T11:34:25.143Z,1.80
2023-02-14T11:36:52.926Z,1.71
2023-02-14T11:39:34.901Z,1.73
2023-02-14T11:42:05.818Z,1.73
2023-02-14T11:44:36.959Z,1.69
2023-02-14T11:47:43.273Z,1.57
2023-02-14T11:50:24.959Z,1.54
2023-02-14T11:52:57.387Z,1.70
2023-02-14T11:55:34.062Z,2.04
2023-02-14T11:58:07.603Z,2.24
2023-02-14T12:00:35.419Z,2.19
2023-02-14T12:03:06.642Z,2.13
2023-02-14T12:05:50.720Z,1.95
2023-02-14T12:08:27.157Z,1.75
2023-02-14T12:11:06.140Z,1.71
2023-02-14T12:13:33.830Z,1.82
2023-02-14T12:16:02.099Z,1.77
2023-02-14T12:18:38.042Z,1.85
2023-02-14T12:21:19.418Z,1.67
2023-02-14T12:24:22.959Z,1.37
2023-02-14T12:27:12.384Z,1.40
2023-02-14T12:29:49.199Z,0.92
2023-02-14T12:32:26.232Z,1.46
2023-02-14T12:35:17.697Z,1.67
2023-02-14T12:38:04.961Z,1.47
2023-02-14T12:40:49.428Z,1.54
2023-02-14T12:43:40.558Z,1.74
2023-02-14T12:46:42.066Z,1.56
2023-02-14T12:49:17.897Z,1.44
2023-02-14T12:51:50.649Z,1.37
2023-02-14T12:54:52.797Z,1.21
2023-02-14T12:57:41.706Z,1.06
2023-02-14T13:00:25.131Z,1.03
2023-02-14T13:03:32.066Z,1.11
2023-02-14T13:06:28.247Z,1.11
2023-02-14T13:09:17.176Z,1.13
2023-02-14T13:11:59.395Z,1.14
2023-02-14T13:15:00.943Z,1.12
2023-02-14T13:18:11.508Z,1.01
2023-02-14T13:20:57.171Z,0.98
2023-02-14T13:23:28.645Z,0.97
2023-02-14T13:26:17.832Z,0.85
2023-02-14T13:28:56.919Z,0.92
2023-02-14T13:31:25.095Z,0.98
2023-02-14T13:33:57.696Z,1.00
2023-02-14T13:36:27.449Z,1.00
2023-02-14T13:38:57.257Z,0.52
2023-02-14T13:41:26.076Z,0.93
2023-02-14T13:43:58.026Z,0.88
2023-02-14T13:46:34.696Z,0.78
2023-02-14T13:49:26.280Z,0.77
2023-02-14T13:51:57.507Z,0.82
2023-02-14T13:54:33.863Z,0.80
2023-02-14T13:57:04.093Z,0.61
2023-02-14T13:59:36.260Z,0.71
2023-02-14T14:02:30.229Z,0.68
2023-02-14T14:04:59.200Z,0.58
2023-02-14T14:07:31.157Z,0.71
2023-02-14T14:10:02.484Z,0.75
2023-02-14T14:12:34.205Z,0.77
2023-02-14T14:15:05.335Z,0.79
2023-02-14T14:17:36.902Z,0.76
2023-02-14T14:20:16.754Z,0.67
2023-02-14T14:22:53.319Z,0.65
2023-02-14T14:25:37.646Z,0.46
2023-02-14T14:28:20.975Z,0.50
2023-02-14T14:30:48.842Z,-0.05
2023-02-14T14:33:28.652Z,0.58
2023-02-14T14:36:03.041Z,0.56
2023-02-14T14:38:32.328Z,0.55
2023-02-14T14:41:01.822Z,0.55
2023-02-14T14:43:38.590Z,0.53
2023-02-14T14:46:12.220Z,0.45
2023-02-14T14:48:51.828Z,0.04
2023-02-14T14:51:28.504Z,0.50
2023-02-14T14:54:14.069Z,0.47
2023-02-14T14:56:53.680Z,0.44
2023-02-14T14:59:39.645Z,0.44
2023-02-14T15:02:26.740Z,0.41
2023-02-14T15:04:54.250Z,0.25
2023-02-14T15:07:33.547Z,0.33
2023-02-14T15:10:02.373Z,0.36
2023-02-14T15:12:49.501Z,0.36
2023-02-14T15:15:19.013Z,0.36
2023-02-14T15:17:47.029Z,0.35
2023-02-14T15:20:22.229Z,0.31
2023-02-14T15:22:52.825Z,0.29
2023-02-14T15:25:35.298Z,0.36
2023-02-14T15:28:03.594Z,0.38
2023-02-14T15:30:38.361Z,0.40
2023-02-14T15:33:07.716Z,0.36
2023-02-14T15:35:38.254Z,0.28
2023-02-14T15:38:07.745Z,0.27
2023-02-14T15:40:36.047Z,-0.23
2023-02-14T15:43:36.828Z,0.25
2023-02-14T15:46:19.864Z,0.01
2023-02-14T15:48:48.096Z,-0.48
2023-02-14T15:51:24.701Z,-0.04
2023-02-14T15:53:58.826Z,-0.58
2023-02-14T15:56:32.701Z,-0.02
2023-02-14T15:59:07.384Z,-0.10
2023-02-14T16:01:36.889Z,-0.11
2023-02-14T16:04:07.063Z,-0.09
2023-02-14T16:06:37.932Z,-0.06
2023-02-14T16:09:08.269Z,-0.02
2023-02-14T16:11:38.310Z,-0.03
2023-02-14T16:14:32.652Z,-0.02
2023-02-14T16:18:08.136Z,-0.04
2023-02-14T16:20:38.110Z,-0.06
2023-02-14T16:23:26.306Z,-0.06
2023-02-14T16:25:57.466Z,0.03
2023-02-14T16:28:29.073Z,-0.02
2023-02-14T16:30:58.913Z,0.02
2023-02-14T16:33:35.794Z,-0.07
2023-02-14T16:36:22.870Z,-0.18
2023-02-14T16:38:51.163Z,-0.11
2023-02-14T16:41:22.042Z,-0.13
2023-02-14T16:43:50.481Z,-0.01
2023-02-14T16:46:23.801Z,-0.01
2023-02-14T16:48:54.794Z,0.02
2023-02-14T16:51:25.807Z,-0.03
2023-02-14T16:53:56.207Z,-0.10
2023-02-14T16:56:36.675Z,-0.17
2023-02-14T16:59:04.792Z,-0.18
2023-02-14T17:01:32.854Z,-0.07
2023-02-14T17:04:00.727Z,-0.81
2023-02-14T17:06:30.626Z,-0.04
2023-02-14T17:09:00.947Z,-0.08
2023-02-14T17:11:32.083Z,-0.65
2023-02-14T17:13:59.669Z,-0.39
2023-02-14T17:16:29.571Z,-0.07
2023-02-14T17:18:57.853Z,-0.07
2023-02-14T17:21:25.737Z,-0.07
2023-02-14T17:23:53.542Z,-0.06
2023-02-14T17:26:21.187Z,-0.06
2023-02-14T17:28:48.943Z,-0.01
2023-02-14T17:31:16.590Z,-0.05
2023-02-14T17:33:44.308Z,-0.06
2023-02-14T17:36:13.385Z,-0.04
2023-02-14T17:38:43.627Z,-0.04
2023-02-14T17:41:12.632Z,-0.06
2023-02-14T17:43:40.324Z,-0.09
2023-02-14T17:46:08.461Z,-0.53
2023-02-14T17:48:36.075Z,-0.05
2023-02-14T17:51:09.046Z,-0.07
2023-02-14T17:53:36.933Z,-0.19
2023-02-14T17:56:12.811Z,-0.09
2023-02-14T17:58:41.034Z,-0.10
2023-02-14T18:01:11.584Z,-0.16
2023-02-14T18:03:39.668Z,-0.25
2023-02-14T18:06:10.297Z,-0.14
2023-02-14T18:08:41.557Z,-0.12
2023-02-14T18:11:11.629Z,-0.07
2023-02-14T18:13:39.545Z,-0.11
2023-02-14T18:16:10.112Z,-0.49
2023-02-14T18:18:38.392Z,0.02
2023-02-14T18:21:08.425Z,-0.37
2023-02-14T18:23:37.744Z,0.01
2023-02-14T18:26:11.266Z,0.01
2023-02-14T18:28:40.176Z,-0.03
2023-02-14T18:31:16.873Z,0.04
2023-02-14T18:33:47.203Z,-0.91
2023-02-14T18:36:17.514Z,0.08
2023-02-14T18:38:46.958Z,0.06
2023-02-14T18:41:17.596Z,-0.01
2023-02-14T18:43:45.583Z,-0.37
2023-02-14T18:46:17.478Z,-0.15
2023-02-14T18:48:45.603Z,-0.19
2023-02-14T18:51:24.478Z,-0.25
2023-02-14T18:53:52.995Z,-1.43
2023-02-14T18:56:24.007Z,-0.36
2023-02-14T18:58:59.512Z,-0.39
2023-02-14T19:01:31.230Z,-1.04
2023-02-14T19:04:02.152Z,-0.40
2023-02-14T19:06:31.608Z,-0.41
2023-02-14T19:08:59.318Z,-0.42
2023-02-14T19:11:31.832Z,-0.46
2023-02-14T19:14:01.896Z,-1.71
2023-02-14T19:16:33.494Z,-0.50
2023-02-14T19:19:02.941Z,-1.02
2023-02-14T19:21:35.236Z,-0.51
2023-02-14T19:24:07.029Z,-1.26
2023-02-14T19:26:40.515Z,-0.61
2023-02-14T19:29:11.207Z,-0.84
2023-02-14T19:31:42.267Z,-1.26
2023-02-14T19:34:18.757Z,-0.82
2023-02-14T19:36:49.035Z,-0.87
2023-02-14T19:39:16.706Z,-0.96
2023-02-14T19:41:45.340Z,-0.94
2023-02-14T19:44:14.983Z,-0.90
2023-02-14T19:46:43.711Z,-0.89
2023-02-14T19:49:14.727Z,-1.49
2023-02-14T19:51:42.552Z,-0.83
2023-02-14T19:54:10.885Z,-0.95
2023-02-14T19:56:41.737Z,-1.23
2023-02-14T19:59:11.064Z,-1.22
2023-02-14T20:01:47.409Z,-1.21
2023-02-14T20:04:17.888Z,-1.15
2023-02-14T20:06:46.024Z,-1.18
2023-02-14T20:09:15.002Z,-1.35
2023-02-14T20:11:50.763Z,-1.21
2023-02-14T20:14:20.840Z,-1.23
2023-02-14T20:16:48.751Z,-1.32
2023-02-14T20:19:22.696Z,-1.24
2023-02-14T20:21:51.155Z,-1.80
2023-02-14T20:24:22.602Z,-1.25
2023-02-14T20:26:51.509Z,-1.33
2023-02-14T20:29:20.847Z,-1.78
2023-02-14T20:31:51.215Z,-1.39
2023-02-14T20:34:20.029Z,-1.88
2023-02-14T20:36:53.092Z,-1.41
2023-02-14T20:39:23.018Z,-1.41
2023-02-14T20:41:50.712Z,-1.38
2023-02-14T20:44:21.767Z,-2.11
2023-02-14T20:46:51.910Z,-1.47
2023-02-14T20:49:21.686Z,-1.41
2023-02-14T20:51:50.569Z,-1.38
2023-02-14T20:54:20.137Z,-1.29
2023-02-14T20:56:48.829Z,-1.34
2023-02-14T20:59:16.742Z,-1.40
2023-02-14T21:01:44.475Z,-1.45
2023-02-14T21:04:14.163Z,-1.56
2023-02-14T21:06:42.370Z,-2.14
2023-02-14T21:09:09.940Z,-1.58
2023-02-14T21:11:37.472Z,-1.63
2023-02-14T21:14:04.998Z,-1.55
2023-02-14T21:16:32.907Z,-1.50
2023-02-14T21:19:17.799Z,-1.52
2023-02-14T21:21:45.415Z,-2.38
2023-02-14T21:24:15.769Z,-1.50
2023-02-14T21:26:44.122Z,-1.85
2023-02-14T21:29:11.846Z,-1.47
2023-02-14T21:31:39.569Z,-1.49
2023-02-14T21:34:07.156Z,-1.45
2023-02-14T21:36:37.728Z,-1.55
2023-02-14T21:39:05.998Z,-2.36
2023-02-14T21:41:34.047Z,-1.61
2023-02-14T21:44:02.945Z,-2.11
2023-02-14T21:46:37.021Z,-1.56
2023-02-14T21:49:24.950Z,-2.23
2023-02-14T21:51:52.312Z,-1.51
2023-02-14T21:54:19.925Z,-1.53
2023-02-14T21:56:50.051Z,-1.60
2023-02-14T21:59:17.896Z,-1.79
2023-02-14T22:01:45.331Z,-2.26
2023-02-14T22:04:13.450Z,-1.82
2023-02-14T22:06:42.215Z,-1.62
2023-02-14T22:09:11.177Z,-1.68
2023-02-14T22:11:38.968Z,-1.52
2023-02-14T22:14:06.744Z,-1.60
2023-02-14T22:16:36.906Z,-1.60
2023-02-14T22:19:05.987Z,-2.22
2023-02-14T22:21:34.682Z,-1.61
2023-02-14T22:24:02.419Z,-1.59
2023-02-14T22:26:41.139Z,-1.68
2023-02-14T22:29:11.273Z,-2.16
2023-02-14T22:31:43.810Z,-1.50
2023-02-14T22:34:14.140Z,-1.63
2023-02-14T22:36:41.642Z,-1.51
2023-02-14T22:39:09.818Z,-2.25
2023-02-14T22:41:38.099Z,-1.52
2023-02-14T22:44:06.736Z,-1.53
2023-02-14T22:46:57.896Z,-1.66
2023-02-14T22:49:25.636Z,-1.49
2023-02-14T22:51:53.022Z,-1.49
2023-02-14T22:54:20.668Z,-1.49
2023-02-14T22:56:50.370Z,-1.45
2023-02-14T22:59:23.190Z,-2.41
2023-02-14T23:01:53.062Z,-1.49
2023-02-14T23:04:22.041Z,-1.53
2023-02-14T23:06:50.805Z,-1.65
2023-02-14T23:09:19.044Z,-1.50
2023-02-14T23:11:47.618Z,-2.60
2023-02-14T23:14:35.638Z,-2.26
2023-02-14T23:17:22.759Z,-2.32
2023-02-14T23:20:08.871Z,-2.08
2023-02-14T23:22:38.718Z,-1.61
2023-02-14T23:25:08.753Z,-1.60
2023-02-14T23:27:40.993Z,-1.57
2023-02-14T23:30:12.002Z,-1.64
2023-02-14T23:32:39.579Z,-1.67
2023-02-14T23:35:07.854Z,-1.69
2023-02-14T23:37:35.279Z,-1.67
2023-02-14T23:40:04.159Z,-1.65
2023-02-14T23:42:31.828Z,-1.68
2023-02-14T23:45:18.976Z,-1.65
2023-02-14T23:47:46.821Z,-1.80
2023-02-14T23:50:14.368Z,-1.68
2023-02-14T23:52:42.537Z,-1.69
2023-02-14T23:55:10.579Z,-1.92
2023-02-14T23:57:38.129Z,-1.71
